sensor_id;sensor_type;location;lat;lon;timestamp;pressure;altitude;pressure_sealevel;temperature;humidity
24620;BME280;12763;55.802;37.404;2023-02-14T00:01:11;98321.75;;;3.58;100.00
24620;BME280;12763;55.802;37.404;2023-02-14T00:03:38;98316.91;;;3.53;100.00
24620;BME280;12763;55.802;37.404;2023-02-14T00:06:09;98322.19;;;3.68;100.00
24620;BME280;12763;55.802;37.404;2023-02-14T00:08:35;98315.91;;;3.74;100.00
24620;BME280;12763;55.802;37.404;2023-02-14T00:11:02;98322.59;;;3.58;100.00
24620;BME280;12763;55.802;37.404;2023-02-14T00:13:28;98319.47;;;3.61;100.00
24620;BME280;12763;55.802;37.404;2023-02-14T00:15:54;98323.41;;;3.52;100.00
24620;BME280;12763;55.802;37.404;2023-02-14T00:18:20;98326.03;;;3.32;100.00
24620;BME280;12763;55.802;37.404;2023-02-14T00:20:46;98330.72;;;3.45;100.00
24620;BME280;12763;55.802;37.404;2023-02-14T00:23:12;98329.25;;;3.42;100.00
24620;BME280;12763;55.802;37.404;2023-02-14T00:25:37;98337.66;;;3.54;100.00
24620;BME280;12763;55.802;37.404;2023-02-14T00:28:03;98332.44;;;3.52;100.00
24620;BME280;12763;55.802;37.404;2023-02-14T00:30:29;98330.16;;;3.56;100.00
24620;BME280;12763;55.802;37.404;2023-02-14T00:32:55;98341.75;;;3.30;100.00
24620;BME280;12763;55.802;37.404;2023-02-14T00:35:20;98358.44;;;3.14;100.00
24620;BME280;12763;55.802;37.404;2023-02-14T00:37:46;98355.56;;;3.22;100.00
24620;BME280;12763;55.802;37.404;2023-02-14T00:40:14;98351.13;;;3.21;100.00
24620;BME280;12763;55.802;37.404;2023-02-14T00:42:40;98353.00;;;3.14;100.00
24620;BME280;12763;55.802;37.404;2023-02-14T00:45:06;98351.84;;;3.36;100.00
24620;BME280;12763;55.802;37.404;2023-02-14T00:47:34;98352.59;;;3.24;100.00
24620;BME280;12763;55.802;37.404;2023-02-14T00:49:59;98352.50;;;3.38;100.00
24620;BME280;12763;55.802;37.404;2023-02-14T00:52:30;98346.03;;;3.46;100.00
24620;BME280;12763;55.802;37.404;2023-02-14T00:54:57;98343.91;;;3.41;100.00
24620;BME280;12763;55.802;37.404;2023-02-14T00:57:23;98351.47;;;3.46;100.00
24620;BME280;12763;55.802;37.404;2023-02-14T00:59:49;98352.78;;;3.56;100.00
24620;BME280;12763;55.802;37.404;2023-02-14T01:02:14;98346.28;;;3.58;100.00
24620;BME280;12763;55.802;37.404;2023-02-14T01:04:40;98353.56;;;3.44;100.00
24620;BME280;12763;55.802;37.404;2023-02-14T01:07:06;98349.47;;;3.20;100.00
24620;BME280;12763;55.802;37.404;2023-02-14T01:09:33;98351.06;;;3.42;100.00
24620;BME280;12763;55.802;37.404;2023-02-14T01:12:01;98350.09;;;3.22;100.00
24620;BME280;12763;55.802;37.404;2023-02-14T01:14:27;98347.22;;;3.30;100.00
24620;BME280;12763;55.802;37.404;2023-02-14T01:16:52;98361.34;;;3.47;100.00
24620;BME280;12763;55.802;37.404;2023-02-14T01:19:18;98348.91;;;3.31;100.00
24620;BME280;12763;55.802;37.404;2023-02-14T01:21:44;98352.31;;;3.46;100.00
24620;BME280;12763;55.802;37.404;2023-02-14T01:24:11;98356.56;;;3.55;100.00
24620;BME280;12763;55.802;37.404;2023-02-14T01:26:37;98365.78;;;3.54;100.00
24620;BME280;12763;55.802;37.404;2023-02-14T01:29:03;98355.34;;;3.65;100.00
24620;BME280;12763;55.802;37.404;2023-02-14T01:31:31;98355.34;;;3.65;100.00
24620;BME280;12763;55.802;37.404;2023-02-14T01:33:58;98356.41;;;3.70;100.00
24620;BME280;12763;55.802;37.404;2023-02-14T01:36:28;98367.25;;;3.50;100.00
24620;BME280;12763;55.802;37.404;2023-02-14T01:38:57;98367.38;;;3.36;100.00
24620;BME280;12763;55.802;37.404;2023-02-14T01:41:25;98367.44;;;3.49;100.00
24620;BME280;12763;55.802;37.404;2023-02-14T01:43:57;98365.31;;;3.44;100.00
24620;BME280;12763;55.802;37.404;2023-02-14T01:46:24;98378.22;;;3.29;100.00
24620;BME280;12763;55.802;37.404;2023-02-14T01:48:54;98362.19;;;3.47;100.00
24620;BME280;12763;55.802;37.404;2023-02-14T01:51:21;98379.31;;;3.01;100.00
24620;BME280;12763;55.802;37.404;2023-02-14T01:53:48;98375.31;;;3.31;100.00
24620;BME280;12763;55.802;37.404;2023-02-14T01:56:20;98379.69;;;3.25;100.00
24620;BME280;12763;55.802;37.404;2023-02-14T01:58:51;98372.22;;;3.06;100.00
24620;BME280;12763;55.802;37.404;2023-02-14T02:01:19;98379.38;;;3.41;100.00
24620;BME280;12763;55.802;37.404;2023-02-14T02:03:56;98379.53;;;3.33;100.00
24620;BME280;12763;55.802;37.404;2023-02-14T02:06:36;98375.16;;;3.45;100.00
24620;BME280;12763;55.802;37.404;2023-02-14T02:09:12;98389.59;;;3.33;100.00
24620;BME280;12763;55.802;37.404;2023-02-14T02:11:40;98389.88;;;3.51;100.00
24620;BME280;12763;55.802;37.404;2023-02-14T02:14:20;98395.63;;;3.63;100.00
24620;BME280;12763;55.802;37.404;2023-02-14T02:17:01;98398.25;;;3.43;100.00
24620;BME280;12763;55.802;37.404;2023-02-14T02:30:44;98401.97;;;3.35;100.00
24620;BME280;12763;55.802;37.404;2023-02-14T02:41:37;98399.97;;;3.50;100.00
24620;BME280;12763;55.802;37.404;2023-02-14T02:44:14;98407.66;;;3.34;100.00
24620;BME280;12763;55.802;37.404;2023-02-14T02:47:15;98395.16;;;3.52;100.00
24620;BME280;12763;55.802;37.404;2023-02-14T02:50:22;98395.31;;;3.44;100.00
24620;BME280;12763;55.802;37.404;2023-02-14T02:53:24;98390.50;;;3.46;100.00
24620;BME280;12763;55.802;37.404;2023-02-14T02:56:06;98410.47;;;3.19;100.00
24620;BME280;12763;55.802;37.404;2023-02-14T02:58:58;98396.91;;;3.32;100.00
24620;BME280;12763;55.802;37.404;2023-02-14T03:01:33;98404.00;;;3.20;100.00
24620;BME280;12763;55.802;37.404;2023-02-14T03:04:03;98399.66;;;3.32;100.00
24620;BME280;12763;55.802;37.404;2023-02-14T03:06:50;98402.44;;;3.11;100.00
24620;BME280;12763;55.802;37.404;2023-02-14T03:12:02;98399.88;;;3.37;100.00
24620;BME280;12763;55.802;37.404;2023-02-14T03:17:35;98395.00;;;3.61;100.00
24620;BME280;12763;55.802;37.404;2023-02-14T03:20:20;98401.75;;;3.30;100.00
24620;BME280;12763;55.802;37.404;2023-02-14T03:22:51;98407.97;;;3.24;100.00
24620;BME280;12763;55.802;37.404;2023-02-14T03:34:15;98402.72;;;3.50;100.00
24620;BME280;12763;55.802;37.404;2023-02-14T03:36:53;98401.69;;;3.58;100.00
24620;BME280;12763;55.802;37.404;2023-02-14T03:39:24;98414.97;;;3.33;100.00
24620;BME280;12763;55.802;37.404;2023-02-14T03:41:56;98418.00;;;3.45;100.00
24620;BME280;12763;55.802;37.404;2023-02-14T03:44:27;98417.81;;;3.53;100.00
24620;BME280;12763;55.802;37.404;2023-02-14T03:47:02;98426.72;;;3.34;100.00
24620;BME280;12763;55.802;37.404;2023-02-14T03:49:31;98428.06;;;2.89;100.00
24620;BME280;12763;55.802;37.404;2023-02-14T03:51:59;98421.53;;;3.11;100.00
24620;BME280;12763;55.802;37.404;2023-02-14T03:54:27;98435.47;;;3.29;100.00
24620;BME280;12763;55.802;37.404;2023-02-14T03:59:29;98436.16;;;3.31;100.00
24620;BME280;12763;55.802;37.404;2023-02-14T04:02:14;98423.78;;;3.35;100.00
24620;BME280;12763;55.802;37.404;2023-02-14T04:04:44;98444.88;;;3.20;100.00
24620;BME280;12763;55.802;37.404;2023-02-14T04:07:14;98438.91;;;3.10;100.00
24620;BME280;12763;55.802;37.404;2023-02-14T04:09:40;98441.28;;;2.92;100.00
24620;BME280;12763;55.802;37.404;2023-02-14T04:12:06;98439.19;;;2.94;100.00
24620;BME280;12763;55.802;37.404;2023-02-14T04:14:32;98452.53;;;3.10;100.00
24620;BME280;12763;55.802;37.404;2023-02-14T04:16:58;98454.91;;;2.92;100.00
24620;BME280;12763;55.802;37.404;2023-02-14T04:19:42;98450.25;;;2.86;100.00
24620;BME280;12763;55.802;37.404;2023-02-14T04:22:08;98457.38;;;2.87;100.00
24620;BME280;12763;55.802;37.404;2023-02-14T04:24:34;98451.78;;;2.74;100.00
24620;BME280;12763;55.802;37.404;2023-02-14T04:26:59;98458.66;;;2.91;100.00
24620;BME280;12763;55.802;37.404;2023-02-14T04:29:39;98463.66;;;3.09;100.00
24620;BME280;12763;55.802;37.404;2023-02-14T04:32:08;98468.88;;;3.10;100.00
24620;BME280;12763;55.802;37.404;2023-02-14T04:34:34;98464.22;;;3.04;100.00
24620;BME280;12763;55.802;37.404;2023-02-14T04:37:00;98471.91;;;2.94;100.00
24620;BME280;12763;55.802;37.404;2023-02-14T04:39:26;98469.94;;;2.88;100.00
24620;BME280;12763;55.802;37.404;2023-02-14T04:41:52;98471.06;;;2.93;100.00
24620;BME280;12763;55.802;37.404;2023-02-14T04:44:17;98478.44;;;3.00;100.00
24620;BME280;12763;55.802;37.404;2023-02-14T04:46:43;98482.28;;;2.84;100.00
24620;BME280;12763;55.802;37.404;2023-02-14T04:49:09;98488.25;;;2.94;100.00
24620;BME280;12763;55.802;37.404;2023-02-14T04:51:35;98484.34;;;3.03;100.00
24620;BME280;12763;55.802;37.404;2023-02-14T04:54:01;98482.44;;;2.76;100.00
24620;BME280;12763;55.802;37.404;2023-02-14T04:56:26;98489.69;;;2.69;100.00
24620;BME280;12763;55.802;37.404;2023-02-14T04:58:53;98497.81;;;2.62;100.00
24620;BME280;12763;55.802;37.404;2023-02-14T05:01:19;98496.81;;;2.70;100.00
24620;BME280;12763;55.802;37.404;2023-02-14T05:03:45;98502.19;;;2.63;100.00
24620;BME280;12763;55.802;37.404;2023-02-14T05:06:10;98513.28;;;2.62;100.00
24620;BME280;12763;55.802;37.404;2023-02-14T05:08:36;98512.78;;;2.73;100.00
24620;BME280;12763;55.802;37.404;2023-02-14T05:11:02;98505.47;;;2.73;100.00
24620;BME280;12763;55.802;37.404;2023-02-14T05:13:28;98513.78;;;2.51;100.00
24620;BME280;12763;55.802;37.404;2023-02-14T05:15:54;98523.03;;;2.92;100.00
24620;BME280;12763;55.802;37.404;2023-02-14T05:18:20;98524.69;;;2.93;100.00
24620;BME280;12763;55.802;37.404;2023-02-14T05:20:50;98526.53;;;3.07;100.00
24620;BME280;12763;55.802;37.404;2023-02-14T05:23:16;98527.50;;;3.00;100.00
24620;BME280;12763;55.802;37.404;2023-02-14T05:25:42;98534.69;;;3.07;100.00
24620;BME280;12763;55.802;37.404;2023-02-14T05:28:09;98538.16;;;2.94;100.00
24620;BME280;12763;55.802;37.404;2023-02-14T05:30:36;98537.03;;;3.31;100.00
24620;BME280;12763;55.802;37.404;2023-02-14T05:33:03;98532.19;;;3.06;100.00
24620;BME280;12763;55.802;37.404;2023-02-14T05:35:29;98541.31;;;3.19;100.00
24620;BME280;12763;55.802;37.404;2023-02-14T05:37:54;98539.94;;;3.30;100.00
24620;BME280;12763;55.802;37.404;2023-02-14T05:40:20;98543.19;;;3.19;100.00
24620;BME280;12763;55.802;37.404;2023-02-14T05:42:46;98550.72;;;3.38;100.00
24620;BME280;12763;55.802;37.404;2023-02-14T05:45:12;98546.09;;;3.38;100.00
24620;BME280;12763;55.802;37.404;2023-02-14T05:47:38;98543.69;;;3.50;100.00
24620;BME280;12763;55.802;37.404;2023-02-14T05:50:04;98546.91;;;3.60;100.00
24620;BME280;12763;55.802;37.404;2023-02-14T05:52:30;98546.72;;;3.62;100.00
24620;BME280;12763;55.802;37.404;2023-02-14T05:54:56;98538.31;;;3.35;100.00
24620;BME280;12763;55.802;37.404;2023-02-14T05:57:22;98546.66;;;3.55;100.00
24620;BME280;12763;55.802;37.404;2023-02-14T05:59:48;98544.25;;;3.67;100.00
24620;BME280;12763;55.802;37.404;2023-02-14T06:02:13;98550.47;;;3.61;100.00
24620;BME280;12763;55.802;37.404;2023-02-14T06:04:40;98546.72;;;3.62;100.00
24620;BME280;12763;55.802;37.404;2023-02-14T06:07:06;98542.69;;;3.58;100.00
24620;BME280;12763;55.802;37.404;2023-02-14T06:09:33;98551.84;;;3.22;100.00
24620;BME280;12763;55.802;37.404;2023-02-14T06:11:59;98544.53;;;3.50;100.00
24620;BME280;12763;55.802;37.404;2023-02-14T06:14:25;98545.47;;;3.64;100.00
24620;BME280;12763;55.802;37.404;2023-02-14T06:16:51;98544.53;;;3.50;100.00
24620;BME280;12763;55.802;37.404;2023-02-14T06:19:16;98547.13;;;3.37;100.00
24620;BME280;12763;55.802;37.404;2023-02-14T06:21:42;98548.47;;;3.76;100.00
24620;BME280;12763;55.802;37.404;2023-02-14T06:24:08;98554.00;;;3.54;100.00
24620;BME280;12763;55.802;37.404;2023-02-14T06:26:34;98563.88;;;3.34;100.00
24620;BME280;12763;55.802;37.404;2023-02-14T06:29:02;98554.63;;;3.56;100.00
24620;BME280;12763;55.802;37.404;2023-02-14T06:31:28;98569.72;;;3.52;100.00
24620;BME280;12763;55.802;37.404;2023-02-14T06:33:54;98555.88;;;3.54;100.00
24620;BME280;12763;55.802;37.404;2023-02-14T06:36:20;98553.44;;;3.66;100.00
24620;BME280;12763;55.802;37.404;2023-02-14T06:38:47;98562.63;;;3.58;100.00
24620;BME280;12763;55.802;37.404;2023-02-14T06:41:13;98568.44;;;3.76;100.00
24620;BME280;12763;55.802;37.404;2023-02-14T06:43:39;98569.63;;;3.39;100.00
24620;BME280;12763;55.802;37.404;2023-02-14T06:46:05;98563.13;;;3.68;100.00
24620;BME280;12763;55.802;37.404;2023-02-14T06:48:31;98578.25;;;3.71;100.00
24620;BME280;12763;55.802;37.404;2023-02-14T06:50:57;98577.81;;;3.39;100.00
24620;BME280;12763;55.802;37.404;2023-02-14T06:53:23;98585.34;;;3.65;100.00
24620;BME280;12763;55.802;37.404;2023-02-14T06:55:48;98578.50;;;3.76;100.00
24620;BME280;12763;55.802;37.404;2023-02-14T06:58:14;98579.41;;;3.83;100.00
24620;BME280;12763;55.802;37.404;2023-02-14T07:00:40;98583.56;;;3.79;100.00
24620;BME280;12763;55.802;37.404;2023-02-14T07:03:06;98589.53;;;3.61;100.00
24620;BME280;12763;55.802;37.404;2023-02-14T07:05:32;98589.97;;;3.43;100.00
24620;BME280;12763;55.802;37.404;2023-02-14T07:07:59;98597.00;;;3.52;100.00
24620;BME280;12763;55.802;37.404;2023-02-14T07:10:25;98594.81;;;3.41;100.00
24620;BME280;12763;55.802;37.404;2023-02-14T07:12:51;98592.94;;;3.70;100.00
24620;BME280;12763;55.802;37.404;2023-02-14T07:15:17;98587.03;;;3.94;100.00
24620;BME280;12763;55.802;37.404;2023-02-14T07:17:43;98595.31;;;4.07;100.00
24620;BME280;12763;55.802;37.404;2023-02-14T07:20:10;98600.22;;;4.18;100.00
24620;BME280;12763;55.802;37.404;2023-02-14T07:22:37;98598.28;;;4.12;100.00
24620;BME280;12763;55.802;37.404;2023-02-14T07:25:04;98604.53;;;3.50;100.00
24620;BME280;12763;55.802;37.404;2023-02-14T07:27:31;98609.72;;;3.45;100.00
24620;BME280;12763;55.802;37.404;2023-02-14T07:29:57;98607.41;;;3.42;100.00
24620;BME280;12763;55.802;37.404;2023-02-14T07:32:23;98614.88;;;3.83;100.00
24620;BME280;12763;55.802;37.404;2023-02-14T07:34:49;98611.34;;;4.17;100.00
24620;BME280;12763;55.802;37.404;2023-02-14T07:37:15;98608.78;;;3.60;100.00
24620;BME280;12763;55.802;37.404;2023-02-14T07:39:45;98616.44;;;3.92;100.00
24620;BME280;12763;55.802;37.404;2023-02-14T07:42:11;98626.81;;;3.82;100.00
24620;BME280;12763;55.802;37.404;2023-02-14T07:44:37;98629.16;;;3.85;100.00
24620;BME280;12763;55.802;37.404;2023-02-14T07:47:07;98627.50;;;3.63;100.00
24620;BME280;12763;55.802;37.404;2023-02-14T07:49:33;98623.75;;;3.91;100.00
24620;BME280;12763;55.802;37.404;2023-02-14T07:51:59;98637.88;;;3.74;100.00
24620;BME280;12763;55.802;37.404;2023-02-14T07:54:25;98635.69;;;3.63;100.00
24620;BME280;12763;55.802;37.404;2023-02-14T07:56:51;98638.94;;;3.73;100.00
24620;BME280;12763;55.802;37.404;2023-02-14T07:59:17;98647.06;;;3.66;100.00
24620;BME280;12763;55.802;37.404;2023-02-14T08:01:42;98642.72;;;3.50;100.00
24620;BME280;12763;55.802;37.404;2023-02-14T08:04:08;98629.31;;;3.34;100.00
24620;BME280;12763;55.802;37.404;2023-02-14T08:06:34;98652.41;;;3.53;100.00
24620;BME280;12763;55.802;37.404;2023-02-14T08:09:00;98653.00;;;3.76;100.00
24620;BME280;12763;55.802;37.404;2023-02-14T08:11:26;98644.16;;;3.46;100.00
24620;BME280;12763;55.802;37.404;2023-02-14T08:14:10;98655.91;;;3.26;100.00
24620;BME280;12763;55.802;37.404;2023-02-14T08:16:36;98654.66;;;3.49;100.00
24620;BME280;12763;55.802;37.404;2023-02-14T08:19:03;98646.03;;;3.46;100.00
24620;BME280;12763;55.802;37.404;2023-02-14T08:21:29;98657.53;;;3.20;100.00
24620;BME280;12763;55.802;37.404;2023-02-14T08:23:55;98655.34;;;2.94;100.00
24620;BME280;12763;55.802;37.404;2023-02-14T08:26:21;98672.66;;;3.44;100.00
24620;BME280;12763;55.802;37.404;2023-02-14T08:28:48;98672.13;;;3.55;100.00
24620;BME280;12763;55.802;37.404;2023-02-14T08:31:22;98682.56;;;3.94;100.00
24620;BME280;12763;55.802;37.404;2023-02-14T08:33:49;98680.44;;;3.47;100.00
24620;BME280;12763;55.802;37.404;2023-02-14T08:36:15;98696.47;;;3.56;100.00
24620;BME280;12763;55.802;37.404;2023-02-14T08:38:43;98692.34;;;3.39;100.00
24620;BME280;12763;55.802;37.404;2023-02-14T08:41:10;98711.19;;;3.55;100.00
24620;BME280;12763;55.802;37.404;2023-02-14T08:43:36;98693.97;;;3.55;100.00
24620;BME280;12763;55.802;37.404;2023-02-14T08:46:02;98704.44;;;3.73;100.00
24620;BME280;12763;55.802;37.404;2023-02-14T08:48:28;98702.88;;;3.64;100.00
24620;BME280;12763;55.802;37.404;2023-02-14T08:50:54;98712.09;;;3.84;100.00
24620;BME280;12763;55.802;37.404;2023-02-14T08:53:20;98708.50;;;3.62;100.00
24620;BME280;12763;55.802;37.404;2023-02-14T08:55:47;98721.63;;;3.52;100.00
24620;BME280;12763;55.802;37.404;2023-02-14T08:58:13;98721.63;;;3.94;100.00
24620;BME280;12763;55.802;37.404;2023-02-14T09:00:39;98728.19;;;4.00;100.00
24620;BME280;12763;55.802;37.404;2023-02-14T09:03:05;98721.91;;;3.78;100.00
24620;BME280;12763;55.802;37.404;2023-02-14T09:05:32;98726.75;;;4.04;98.96
24620;BME280;12763;55.802;37.404;2023-02-14T09:07:58;98730.78;;;4.08;97.54
24620;BME280;12763;55.802;37.404;2023-02-14T09:10:24;98728.75;;;3.95;96.99
24620;BME280;12763;55.802;37.404;2023-02-14T09:12:50;98747.06;;;3.95;97.25
24620;BME280;12763;55.802;37.404;2023-02-14T09:15:16;98731.31;;;3.76;98.71
24620;BME280;12763;55.802;37.404;2023-02-14T09:17:42;98750.91;;;3.43;100.00
24620;BME280;12763;55.802;37.404;2023-02-14T09:20:10;98746.50;;;3.85;99.68
24620;BME280;12763;55.802;37.404;2023-02-14T09:22:36;98762.94;;;3.70;98.73
24620;BME280;12763;55.802;37.404;2023-02-14T09:25:03;98759.06;;;3.79;96.78
24620;BME280;12763;55.802;37.404;2023-02-14T09:27:29;98777.41;;;3.49;98.08
24620;BME280;12763;55.802;37.404;2023-02-14T09:29:55;98759.66;;;3.75;97.88
24620;BME280;12763;55.802;37.404;2023-02-14T09:32:21;98754.78;;;3.91;96.42
24620;BME280;12763;55.802;37.404;2023-02-14T09:34:47;98753.13;;;3.76;93.85
24620;BME280;12763;55.802;37.404;2023-02-14T09:37:13;98755.84;;;4.18;94.46
24620;BME280;12763;55.802;37.404;2023-02-14T09:39:38;98763.25;;;4.24;92.58
24620;BME280;12763;55.802;37.404;2023-02-14T09:44:56;98762.88;;;3.85;92.41
24620;BME280;12763;55.802;37.404;2023-02-14T09:47:34;98769.53;;;3.97;91.51
24620;BME280;12763;55.802;37.404;2023-02-14T09:50:04;98781.63;;;3.52;92.45
24620;BME280;12763;55.802;37.404;2023-02-14T09:52:32;98789.28;;;3.78;91.80
24620;BME280;12763;55.802;37.404;2023-02-14T09:55:01;98786.56;;;3.99;89.28
24620;BME280;12763;55.802;37.404;2023-02-14T09:58:04;98791.75;;;4.36;89.24
24620;BME280;12763;55.802;37.404;2023-02-14T10:00:45;98787.22;;;4.50;88.10
24620;BME280;12763;55.802;37.404;2023-02-14T10:09:21;98819.19;;;4.07;88.50
24620;BME280;12763;55.802;37.404;2023-02-14T10:11:53;98818.78;;;4.10;89.61
24620;BME280;12763;55.802;37.404;2023-02-14T10:14:25;98824.16;;;3.82;89.40
24620;BME280;12763;55.802;37.404;2023-02-14T10:17:15;98819.19;;;4.07;89.04
24620;BME280;12763;55.802;37.404;2023-02-14T10:19:48;98823.09;;;4.19;86.94
24620;BME280;12763;55.802;37.404;2023-02-14T10:22:22;98815.34;;;4.71;84.18
24620;BME280;12763;55.802;37.404;2023-02-14T10:25:07;98831.97;;;4.49;82.50
24620;BME280;12763;55.802;37.404;2023-02-14T10:27:40;98830.03;;;4.22;84.63
24620;BME280;12763;55.802;37.404;2023-02-14T10:35:21;98825.75;;;3.91;87.52
24620;BME280;12763;55.802;37.404;2023-02-14T10:43:29;98856.41;;;4.14;86.59
24620;BME280;12763;55.802;37.404;2023-02-14T10:54:41;98890.13;;;3.86;96.21
24620;BME280;12763;55.802;37.404;2023-02-14T10:57:17;98885.16;;;3.89;97.01
24620;BME280;12763;55.802;37.404;2023-02-14T10:59:51;98886.03;;;3.46;99.84
24620;BME280;12763;55.802;37.404;2023-02-14T11:02:22;98884.81;;;3.99;97.99
24620;BME280;12763;55.802;37.404;2023-02-14T11:04:49;98898.56;;;4.05;97.90
24620;BME280;12763;55.802;37.404;2023-02-14T11:07:18;98897.94;;;3.89;96.59
24620;BME280;12763;55.802;37.404;2023-02-14T11:09:44;98887.69;;;3.91;95.98
24620;BME280;12763;55.802;37.404;2023-02-14T11:12:10;98886.78;;;4.05;94.59
24620;BME280;12763;55.802;37.404;2023-02-14T11:14:38;98898.63;;;4.12;92.01
24620;BME280;12763;55.802;37.404;2023-02-14T11:19:58;98905.94;;;3.90;90.77
24620;BME280;12763;55.802;37.404;2023-02-14T11:22:32;98898.34;;;4.07;88.58
24620;BME280;12763;55.802;37.404;2023-02-14T11:25:27;98916.06;;;4.11;87.47
24620;BME280;12763;55.802;37.404;2023-02-14T11:28:01;98906.50;;;4.64;86.00
24620;BME280;12763;55.802;37.404;2023-02-14T11:30:34;98919.00;;;4.73;84.53
24620;BME280;12763;55.802;37.404;2023-02-14T11:33:01;98921.72;;;4.94;83.04
24620;BME280;12763;55.802;37.404;2023-02-14T11:35:29;98911.00;;;4.71;82.06
24620;BME280;12763;55.802;37.404;2023-02-14T11:38:28;98912.09;;;6.08;77.32
24620;BME280;12763;55.802;37.404;2023-02-14T11:40:55;98906.59;;;6.68;73.41
24620;BME280;12763;55.802;37.404;2023-02-14T11:43:41;98907.84;;;6.59;71.45
24620;BME280;12763;55.802;37.404;2023-02-14T11:51:35;98909.06;;;9.19;61.38
24620;BME280;12763;55.802;37.404;2023-02-14T11:54:02;98912.44;;;7.70;62.98
24620;BME280;12763;55.802;37.404;2023-02-14T11:56:45;98928.81;;;8.85;60.42
24620;BME280;12763;55.802;37.404;2023-02-14T11:59:25;98927.16;;;7.82;63.62
24620;BME280;12763;55.802;37.404;2023-02-14T12:01:52;98932.69;;;7.62;66.29
24620;BME280;12763;55.802;37.404;2023-02-14T12:04:27;98946.84;;;6.01;68.71
24620;BME280;12763;55.802;37.404;2023-02-14T12:07:14;98943.78;;;5.82;70.77
24620;BME280;12763;55.802;37.404;2023-02-14T12:09:40;98947.88;;;6.60;70.07
24620;BME280;12763;55.802;37.404;2023-02-14T12:12:23;98958.34;;;6.30;70.14
24620;BME280;12763;55.802;37.404;2023-02-14T12:14:50;98952.34;;;7.66;65.17
24620;BME280;12763;55.802;37.404;2023-02-14T12:17:33;98962.28;;;6.75;67.71
24620;BME280;12763;55.802;37.404;2023-02-14T12:22:38;98959.72;;;5.72;74.01
24620;BME280;12763;55.802;37.404;2023-02-14T12:25:13;98965.13;;;6.41;71.69
24620;BME280;12763;55.802;37.404;2023-02-14T12:30:22;98960.09;;;6.44;66.79
24620;BME280;12763;55.802;37.404;2023-02-14T12:32:55;98974.97;;;7.16;63.99
24620;BME280;12763;55.802;37.404;2023-02-14T12:44:13;99001.25;;;5.48;71.09
24620;BME280;12763;55.802;37.404;2023-02-14T12:47:06;99015.41;;;5.30;73.17
24620;BME280;12763;55.802;37.404;2023-02-14T12:49:42;99029.19;;;4.73;74.17
24620;BME280;12763;55.802;37.404;2023-02-14T13:00:58;99036.84;;;4.63;75.66
24620;BME280;12763;55.802;37.404;2023-02-14T13:06:32;99046.91;;;4.78;76.08
24620;BME280;12763;55.802;37.404;2023-02-14T13:09:26;99045.00;;;4.42;76.86
24620;BME280;12763;55.802;37.404;2023-02-14T13:20:11;99067.91;;;4.41;77.50
24620;BME280;12763;55.802;37.404;2023-02-14T13:22:44;99060.56;;;3.98;80.15
24620;BME280;12763;55.802;37.404;2023-02-14T13:25:29;99077.88;;;4.34;79.49
24620;BME280;12763;55.802;37.404;2023-02-14T13:28:08;99068.81;;;4.34;78.47
24620;BME280;12763;55.802;37.404;2023-02-14T13:30:36;99070.00;;;4.10;78.58
24620;BME280;12763;55.802;37.404;2023-02-14T13:33:07;99090.81;;;3.96;80.73
24620;BME280;12763;55.802;37.404;2023-02-14T13:35:34;99087.72;;;4.14;79.48
24620;BME280;12763;55.802;37.404;2023-02-14T13:38:07;99099.53;;;4.50;77.82
24620;BME280;12763;55.802;37.404;2023-02-14T13:40:36;99104.94;;;4.00;79.05
24620;BME280;12763;55.802;37.404;2023-02-14T13:43:02;99107.94;;;4.05;79.50
24620;BME280;12763;55.802;37.404;2023-02-14T13:48:12;99117.06;;;4.12;81.36
24620;BME280;12763;55.802;37.404;2023-02-14T13:50:40;99134.00;;;3.93;81.84
24620;BME280;12763;55.802;37.404;2023-02-14T13:53:29;99131.19;;;4.01;82.55
24620;BME280;12763;55.802;37.404;2023-02-14T13:55:55;99133.53;;;4.04;81.99
24620;BME280;12763;55.802;37.404;2023-02-14T13:58:22;99145.94;;;3.77;83.46
24620;BME280;12763;55.802;37.404;2023-02-14T14:00:50;99150.91;;;3.74;84.83
24620;BME280;12763;55.802;37.404;2023-02-14T14:06:09;99157.94;;;4.05;83.53
24620;BME280;12763;55.802;37.404;2023-02-14T14:08:44;99164.31;;;3.98;83.86
24620;BME280;12763;55.802;37.404;2023-02-14T14:16:27;99169.31;;;3.94;85.38
24620;BME280;12763;55.802;37.404;2023-02-14T14:21:37;99193.34;;;3.53;88.14
24620;BME280;12763;55.802;37.404;2023-02-14T14:24:25;99187.22;;;3.97;87.14
24620;BME280;12763;55.802;37.404;2023-02-14T14:32:10;99205.00;;;3.70;89.80
24620;BME280;12763;55.802;37.404;2023-02-14T14:34:47;99206.97;;;3.62;89.76
24620;BME280;12763;55.802;37.404;2023-02-14T14:37:19;99194.94;;;3.25;91.65
24620;BME280;12763;55.802;37.404;2023-02-14T14:39:53;99215.31;;;3.37;92.89
24620;BME280;12763;55.802;37.404;2023-02-14T14:42:20;99212.28;;;3.32;91.38
24620;BME280;12763;55.802;37.404;2023-02-14T14:45:00;99221.75;;;3.44;91.17
24620;BME280;12763;55.802;37.404;2023-02-14T14:47:30;99224.78;;;3.49;90.96
24620;BME280;12763;55.802;37.404;2023-02-14T14:50:25;99234.97;;;3.55;90.65
24620;BME280;12763;55.802;37.404;2023-02-14T14:52:53;99219.03;;;3.14;91.50
24620;BME280;12763;55.802;37.404;2023-02-14T14:55:28;99237.13;;;3.37;92.35
24620;BME280;12763;55.802;37.404;2023-02-14T14:57:57;99228.31;;;2.96;93.87
24620;BME280;12763;55.802;37.404;2023-02-14T15:00:29;99237.03;;;2.92;94.24
24620;BME280;12763;55.802;37.404;2023-02-14T15:02:56;99239.50;;;2.79;94.76
24620;BME280;12763;55.802;37.404;2023-02-14T15:06:04;99251.22;;;3.18;93.60
24620;BME280;12763;55.802;37.404;2023-02-14T15:09:19;99245.44;;;3.13;92.88
24620;BME280;12763;55.802;37.404;2023-02-14T15:12:22;99265.69;;;2.80;93.58
24620;BME280;12763;55.802;37.404;2023-02-14T15:15:38;99246.94;;;2.85;92.84